createdAt,value
2022-12-04T00:02:23.243Z,-0.91
2022-12-04T00:04:49.615Z,-1.00
2022-12-04T00:07:15.798Z,-1.01
2022-12-04T00:09:41.951Z,-1.01
2022-12-04T00:12:08.165Z,-0.93
2022-12-04T00:14:34.506Z,-0.94
2022-12-04T00:17:01.921Z,-0.96
2022-12-04T00:19:28.083Z,-0.90
2022-12-04T00:21:54.208Z,-0.91
2022-12-04T00:24:20.345Z,-0.92
2022-12-04T00:26:46.466Z,-0.88
2022-12-04T00:29:12.633Z,-0.94
2022-12-04T13:15:22.420Z,1.09
2022-12-04T13:17:53.852Z,1.17
2022-12-04T13:20:28.764Z,1.23
2022-12-04T13:23:13.221Z,1.21
2022-12-04T13:26:10.231Z,1.26
2022-12-04T13:28:49.156Z,1.28
2022-12-04T13:31:33.681Z,1.25
2022-12-04T13:34:26.306Z,1.27
2022-12-04T13:37:25.656Z,1.17
2022-12-04T13:40:27.775Z,1.23
2022-12-04T13:43:25.007Z,1.21
2022-12-04T13:45:54.670Z,1.10
2022-12-04T13:48:36.543Z,1.02
2022-12-04T13:51:15.995Z,1.06
2022-12-04T13:53:43.909Z,1.06
2022-12-04T13:56:26.039Z,1.01
2022-12-04T13:59:06.978Z,1.01
2022-12-04T14:01:44.773Z,1.06
2022-12-04T14:04:46.506Z,1.00
2022-12-04T14:07:37.224Z,1.01
2022-12-04T14:10:23.509Z,1.03
2022-12-04T14:12:59.006Z,1.15
2022-12-04T14:15:29.996Z,1.18
2022-12-04T14:18:20.338Z,1.22
2022-12-04T14:21:00.521Z,1.17
2022-12-04T14:23:35.149Z,1.15
2022-12-04T14:26:03.251Z,1.19
2022-12-04T14:28:35.986Z,1.17
2022-12-04T14:31:18.760Z,1.11
2022-12-04T14:33:56.953Z,1.18
2022-12-04T14:36:42.241Z,1.17
2022-12-04T14:39:15.058Z,1.16
2022-12-04T14:41:41.938Z,1.14
2022-12-04T14:44:23.032Z,1.13
2022-12-04T14:46:52.910Z,1.16
2022-12-04T14:49:35.903Z,1.13
2022-12-04T14:52:43.732Z,1.23
2022-12-04T14:55:19.155Z,1.21
2022-12-04T14:57:49.593Z,1.20
2022-12-04T15:00:19.526Z,1.11
2022-12-04T15:02:48.097Z,1.13
2022-12-04T15:05:28.830Z,1.14
2022-12-04T15:08:00.071Z,1.17
2022-12-04T15:10:48.070Z,1.18
2022-12-04T15:13:31.951Z,1.21
2022-12-04T15:16:04.284Z,1.27
2022-12-04T15:18:32.348Z,1.26
2022-12-04T15:21:03.035Z,1.26
2022-12-04T15:23:38.643Z,1.20
2022-12-04T15:26:10.642Z,1.17
2022-12-04T15:28:45.330Z,1.14
2022-12-04T15:31:29.607Z,1.14
2022-12-04T15:33:59.933Z,1.17
2022-12-04T15:36:46.622Z,1.17
2022-12-04T15:39:17.288Z,1.17
2022-12-04T15:41:43.418Z,1.16
2022-12-04T15:44:30.593Z,1.22
2022-12-04T15:47:00.200Z,1.17
2022-12-04T15:49:31.546Z,1.21
2022-12-04T15:52:14.387Z,1.21
2022-12-04T15:54:48.708Z,1.24
2022-12-04T15:57:22.570Z,1.26
2022-12-04T15:59:50.700Z,1.28
2022-12-04T16:02:25.113Z,1.28
2022-12-04T16:04:51.265Z,1.26
2022-12-04T16:07:29.358Z,1.33
2022-12-04T16:10:04.119Z,1.33
2022-12-04T16:12:31.997Z,1.28
2022-12-04T16:14:58.502Z,1.27
2022-12-04T16:17:30.415Z,1.29
2022-12-04T16:19:57.822Z,1.36
2022-12-04T16:22:25.177Z,1.40
2022-12-04T16:24:51.406Z,1.45
2022-12-04T16:27:22.615Z,1.47
2022-12-04T16:29:50.129Z,1.51
2022-12-04T16:32:19.311Z,1.55
2022-12-04T16:34:45.878Z,1.56
2022-12-04T16:37:14.040Z,1.58
2022-12-04T16:39:41.596Z,1.53
2022-12-04T16:42:18.655Z,1.52
2022-12-04T16:44:44.941Z,1.50
2022-12-04T16:47:12.517Z,1.54
2022-12-04T16:49:39.451Z,1.60
2022-12-04T16:52:06.279Z,1.67
2022-12-04T16:54:32.423Z,1.68
2022-12-04T16:56:58.818Z,1.64
2022-12-04T16:59:24.938Z,1.63
2022-12-04T17:01:51.864Z,1.62
2022-12-04T17:04:18.745Z,1.58
2022-12-04T17:06:45.328Z,1.65
2022-12-04T17:09:12.138Z,1.68
2022-12-04T17:11:38.927Z,1.63
2022-12-04T17:14:07.485Z,1.68
2022-12-04T17:16:38.501Z,1.75
2022-12-04T17:19:05.301Z,1.69
2022-12-04T17:21:31.488Z,1.65
2022-12-04T17:23:57.605Z,1.60
2022-12-04T17:26:23.742Z,1.64
2022-12-04T17:28:51.007Z,1.62
2022-12-04T17:31:19.609Z,1.73
2022-12-04T17:33:45.822Z,1.72
2022-12-04T17:36:16.222Z,1.75
2022-12-04T17:38:43.058Z,1.73
2022-12-04T17:41:10.849Z,1.79
2022-12-04T17:43:37.012Z,1.82
2022-12-04T17:46:09.500Z,1.88
2022-12-04T17:48:35.768Z,1.92
2022-12-04T17:51:14.982Z,2.01
2022-12-04T17:53:41.719Z,2.04
2022-12-04T17:56:12.166Z,1.93
2022-12-04T17:58:38.809Z,1.94
2022-12-04T18:01:07.560Z,1.95
2022-12-04T18:03:34.307Z,1.95
2022-12-04T18:06:01.536Z,1.90
2022-12-04T18:08:29.552Z,1.86
2022-12-04T18:10:57.222Z,1.87
2022-12-04T18:13:23.391Z,1.83
2022-12-04T18:15:49.521Z,1.85
2022-12-04T18:18:15.646Z,1.87
2022-12-04T18:20:42.391Z,1.90
2022-12-04T18:23:09.094Z,1.83
2022-12-04T18:25:35.240Z,1.81
2022-12-04T18:28:01.432Z,1.83
2022-12-04T18:30:27.609Z,1.86
2022-12-04T18:32:58.350Z,1.90
2022-12-04T18:35:24.618Z,1.90
2022-12-04T18:37:50.737Z,1.91
2022-12-04T18:40:16.985Z,1.97
2022-12-04T18:42:43.153Z,1.97
2022-12-04T18:45:09.854Z,1.99
2022-12-04T18:47:36.597Z,1.95
2022-12-04T18:50:02.904Z,1.97
2022-12-04T18:52:29.062Z,1.89
2022-12-04T18:54:55.196Z,1.93
2022-12-04T18:57:21.328Z,1.91
2022-12-04T18:59:48.220Z,1.87
2022-12-04T19:02:14.408Z,1.86
2022-12-04T19:04:40.665Z,1.84
2022-12-04T19:07:06.804Z,1.88
2022-12-04T19:10:09.505Z,1.86
2022-12-04T19:12:19.028Z,1.86
2022-12-04T19:14:45.168Z,1.82
2022-12-04T19:17:11.793Z,1.84
2022-12-04T19:19:37.949Z,1.82
2022-12-04T19:22:04.436Z,1.81
2022-12-04T19:24:30.698Z,1.84
2022-12-04T19:26:56.908Z,1.86
2022-12-04T19:29:23.302Z,1.78
2022-12-04T19:31:51.517Z,1.79
2022-12-04T19:34:20.857Z,1.83
2022-12-04T19:36:47.409Z,1.84
2022-12-04T19:39:13.558Z,1.86
2022-12-04T19:41:41.450Z,1.82
2022-12-04T19:44:46.327Z,1.78
2022-12-04T19:46:55.275Z,1.68
2022-12-04T19:49:21.612Z,1.73
2022-12-04T19:51:48.523Z,1.75
2022-12-04T19:54:15.624Z,1.74
2022-12-04T19:56:42.852Z,1.80
2022-12-04T19:59:09.018Z,1.78
2022-12-04T20:01:36.112Z,1.78
2022-12-04T20:04:07.142Z,1.82
2022-12-04T20:06:42.271Z,1.86
2022-12-04T20:09:12.716Z,1.85
2022-12-04T20:11:39.267Z,1.84
2022-12-04T20:14:06.527Z,1.88
2022-12-04T20:16:33.939Z,1.88
2022-12-04T20:19:01.973Z,1.94
2022-12-04T20:21:30.674Z,1.89
2022-12-04T20:23:58.340Z,1.87
2022-12-04T20:26:29.941Z,1.86
2022-12-04T20:28:58.316Z,1.87
2022-12-04T20:31:27.353Z,1.85
2022-12-04T20:33:55.488Z,1.79
2022-12-04T20:36:24.335Z,1.84
2022-12-04T20:38:52.854Z,1.85
2022-12-04T20:41:19.189Z,1.84
2022-12-04T20:43:47.045Z,1.84
2022-12-04T20:46:22.879Z,1.81
2022-12-04T20:48:50.273Z,1.77
2022-12-04T20:51:22.818Z,1.73
2022-12-04T20:53:52.708Z,1.77
2022-12-04T20:56:21.935Z,1.75
2022-12-04T20:58:48.085Z,1.76
2022-12-04T21:01:17.753Z,1.73
2022-12-04T21:03:45.120Z,1.74
2022-12-04T21:06:32.648Z,1.70
2022-12-04T21:09:02.197Z,1.74
2022-12-04T21:11:37.140Z,1.73
2022-12-04T21:14:34.351Z,1.73
2022-12-04T21:17:01.714Z,1.70
2022-12-04T21:19:28.027Z,1.71
2022-12-04T21:21:54.321Z,1.71
2022-12-04T21:24:23.425Z,1.68
2022-12-04T21:26:49.615Z,1.69
2022-12-04T21:29:16.242Z,1.68
2022-12-04T21:31:42.982Z,1.74
2022-12-04T21:34:12.139Z,1.75
2022-12-04T21:36:38.472Z,1.74
2022-12-04T21:39:05.047Z,1.73
2022-12-04T21:41:49.901Z,1.78
2022-12-04T21:44:18.901Z,1.78
2022-12-04T21:46:46.284Z,1.78
2022-12-04T21:49:13.779Z,1.75
2022-12-04T21:51:56.768Z,1.77
2022-12-04T21:54:23.855Z,1.77
2022-12-04T21:56:49.982Z,1.78
2022-12-04T21:59:16.138Z,1.82
2022-12-04T22:01:42.542Z,1.78
2022-12-04T22:04:08.737Z,1.78
2022-12-04T22:06:36.404Z,1.74
2022-12-04T22:09:07.840Z,1.74
2022-12-04T22:11:34.042Z,1.72
2022-12-04T22:14:00.187Z,1.73
2022-12-04T22:16:30.320Z,1.74
2022-12-04T22:18:58.324Z,1.76
2022-12-04T22:21:24.721Z,1.82
2022-12-04T22:23:57.269Z,1.82
2022-12-04T22:26:23.718Z,1.78
2022-12-04T22:28:50.132Z,1.77
2022-12-04T22:31:19.191Z,1.82
2022-12-04T22:33:52.274Z,1.89
2022-12-04T22:36:21.648Z,1.93
2022-12-04T22:39:08.346Z,1.94
2022-12-04T22:41:35.277Z,1.92
2022-12-04T22:44:01.386Z,1.96
2022-12-04T22:46:27.577Z,1.88
2022-12-04T22:48:53.764Z,1.77
2022-12-04T22:51:21.377Z,1.77
2022-12-04T22:53:50.179Z,1.76
2022-12-04T22:56:27.965Z,1.80
2022-12-04T22:58:55.110Z,1.76
2022-12-04T23:01:24.177Z,1.77
2022-12-04T23:03:51.621Z,1.75
2022-12-04T23:06:19.957Z,1.74
2022-12-04T23:08:46.488Z,1.77
2022-12-04T23:11:17.503Z,1.78
2022-12-04T23:13:44.281Z,1.78
2022-12-04T23:16:14.282Z,1.79
2022-12-04T23:18:46.149Z,1.80
2022-12-04T23:21:14.318Z,1.77
2022-12-04T23:23:42.790Z,1.74
2022-12-04T23:26:12.209Z,1.75
2022-12-04T23:28:38.415Z,1.81
2022-12-04T23:31:05.224Z,1.85
2022-12-04T23:33:31.960Z,1.82
2022-12-04T23:35:59.937Z,1.82
2022-12-04T23:38:26.891Z,1.84
2022-12-04T23:41:07.084Z,1.82
2022-12-04T23:43:34.351Z,1.84
2022-12-04T23:46:02.551Z,1.84
2022-12-04T23:48:31.958Z,1.92
2022-12-04T23:50:58.086Z,1.88
2022-12-04T23:53:24.785Z,1.92
2022-12-04T23:55:59.233Z,1.93
2022-12-04T23:58:25.876Z,1.90
